sensor_id;sensor_type;location;lat;lon;timestamp;temperature;humidity
7494;DHT22;3788;49.902;8.590;2023-09-18T00:01:53;21.50;99.10
7494;DHT22;3788;49.902;8.590;2023-09-18T00:04:19;21.40;99.10
7494;DHT22;3788;49.902;8.590;2023-09-18T00:06:46;21.40;99.20
7494;DHT22;3788;49.902;8.590;2023-09-18T00:09:12;21.40;99.30
7494;DHT22;3788;49.902;8.590;2023-09-18T00:11:39;21.40;99.40
7494;DHT22;3788;49.902;8.590;2023-09-18T00:14:07;21.30;99.50
7494;DHT22;3788;49.902;8.590;2023-09-18T00:16:36;21.30;99.60
7494;DHT22;3788;49.902;8.590;2023-09-18T00:19:03;21.20;99.70
7494;DHT22;3788;49.902;8.590;2023-09-18T00:21:31;21.20;99.80
7494;DHT22;3788;49.902;8.590;2023-09-18T00:23:58;21.20;99.90
7494;DHT22;3788;49.902;8.590;2023-09-18T00:26:25;21.20;99.90
7494;DHT22;3788;49.902;8.590;2023-09-18T00:28:52;21.20;99.90
7494;DHT22;3788;49.902;8.590;2023-09-18T00:31:19;21.20;99.90
7494;DHT22;3788;49.902;8.590;2023-09-18T00:33:47;21.20;99.90
7494;DHT22;3788;49.902;8.590;2023-09-18T00:36:14;21.10;99.90
7494;DHT22;3788;49.902;8.590;2023-09-18T00:38:41;21.10;99.90
7494;DHT22;3788;49.902;8.590;2023-09-18T00:41:07;21.10;99.90
7494;DHT22;3788;49.902;8.590;2023-09-18T00:43:34;21.10;99.90
7494;DHT22;3788;49.902;8.590;2023-09-18T00:46:01;21.10;99.90
7494;DHT22;3788;49.902;8.590;2023-09-18T00:48:28;21.00;99.90
7494;DHT22;3788;49.902;8.590;2023-09-18T00:50:56;21.00;99.90
7494;DHT22;3788;49.902;8.590;2023-09-18T00:53:24;21.00;99.90
7494;DHT22;3788;49.902;8.590;2023-09-18T00:55:54;21.00;99.90
7494;DHT22;3788;49.902;8.590;2023-09-18T00:58:22;21.00;99.90
7494;DHT22;3788;49.902;8.590;2023-09-18T01:00:49;21.00;99.90
7494;DHT22;3788;49.902;8.590;2023-09-18T01:03:16;21.00;99.90
7494;DHT22;3788;49.902;8.590;2023-09-18T01:05:44;21.00;99.90
7494;DHT22;3788;49.902;8.590;2023-09-18T01:08:12;21.00;99.90
7494;DHT22;3788;49.902;8.590;2023-09-18T01:10:46;21.00;99.90
7494;DHT22;3788;49.902;8.590;2023-09-18T01:13:19;21.00;99.90
7494;DHT22;3788;49.902;8.590;2023-09-18T01:15:52;21.00;99.90
7494;DHT22;3788;49.902;8.590;2023-09-18T01:18:20;21.00;99.90
7494;DHT22;3788;49.902;8.590;2023-09-18T01:20:47;21.00;99.90
7494;DHT22;3788;49.902;8.590;2023-09-18T01:23:15;21.00;99.90
7494;DHT22;3788;49.902;8.590;2023-09-18T01:25:42;21.00;99.90
7494;DHT22;3788;49.902;8.590;2023-09-18T01:28:08;20.90;99.90
7494;DHT22;3788;49.902;8.590;2023-09-18T01:30:35;21.00;99.90
7494;DHT22;3788;49.902;8.590;2023-09-18T01:33:04;20.90;99.90
7494;DHT22;3788;49.902;8.590;2023-09-18T01:35:31;20.90;99.90
7494;DHT22;3788;49.902;8.590;2023-09-18T01:38:00;20.90;99.90
7494;DHT22;3788;49.902;8.590;2023-09-18T01:40:30;20.90;99.90
7494;DHT22;3788;49.902;8.590;2023-09-18T01:42:57;20.90;99.90
7494;DHT22;3788;49.902;8.590;2023-09-18T01:45:24;20.90;99.90
7494;DHT22;3788;49.902;8.590;2023-09-18T01:47:51;20.90;99.90
7494;DHT22;3788;49.902;8.590;2023-09-18T01:50:17;20.90;99.90
7494;DHT22;3788;49.902;8.590;2023-09-18T01:52:44;20.90;99.90
7494;DHT22;3788;49.902;8.590;2023-09-18T01:55:11;20.90;99.90
7494;DHT22;3788;49.902;8.590;2023-09-18T01:57:40;21.00;99.90
7494;DHT22;3788;49.902;8.590;2023-09-18T02:00:08;21.00;99.90
7494;DHT22;3788;49.902;8.590;2023-09-18T02:02:35;21.00;99.90
7494;DHT22;3788;49.902;8.590;2023-09-18T02:05:02;20.90;99.90
7494;DHT22;3788;49.902;8.590;2023-09-18T02:07:29;20.80;99.90
7494;DHT22;3788;49.902;8.590;2023-09-18T02:09:57;20.90;99.90
7494;DHT22;3788;49.902;8.590;2023-09-18T02:12:23;20.80;99.90
7494;DHT22;3788;49.902;8.590;2023-09-18T02:14:51;20.70;99.90
7494;DHT22;3788;49.902;8.590;2023-09-18T02:17:18;20.60;99.90
7494;DHT22;3788;49.902;8.590;2023-09-18T02:19:45;20.50;99.90
7494;DHT22;3788;49.902;8.590;2023-09-18T02:22:12;20.40;99.90
7494;DHT22;3788;49.902;8.590;2023-09-18T02:24:39;20.30;99.90
7494;DHT22;3788;49.902;8.590;2023-09-18T02:27:05;20.30;99.90
7494;DHT22;3788;49.902;8.590;2023-09-18T02:29:32;20.30;99.90
7494;DHT22;3788;49.902;8.590;2023-09-18T02:32:00;20.30;99.90
7494;DHT22;3788;49.902;8.590;2023-09-18T02:34:27;20.30;99.90
7494;DHT22;3788;49.902;8.590;2023-09-18T02:36:54;20.30;99.90
7494;DHT22;3788;49.902;8.590;2023-09-18T02:39:21;20.40;99.90
7494;DHT22;3788;49.902;8.590;2023-09-18T02:41:47;20.40;99.90
7494;DHT22;3788;49.902;8.590;2023-09-18T02:44:14;20.40;99.90
7494;DHT22;3788;49.902;8.590;2023-09-18T02:46:41;20.40;99.90
7494;DHT22;3788;49.902;8.590;2023-09-18T02:49:10;20.40;99.90
7494;DHT22;3788;49.902;8.590;2023-09-18T02:51:36;20.40;99.90
7494;DHT22;3788;49.902;8.590;2023-09-18T02:54:03;20.40;99.90
7494;DHT22;3788;49.902;8.590;2023-09-18T02:56:30;20.40;99.90
7494;DHT22;3788;49.902;8.590;2023-09-18T02:58:56;20.40;99.90
7494;DHT22;3788;49.902;8.590;2023-09-18T03:01:23;20.30;99.90
7494;DHT22;3788;49.902;8.590;2023-09-18T03:03:50;20.30;99.90
7494;DHT22;3788;49.902;8.590;2023-09-18T03:06:18;20.30;99.90
7494;DHT22;3788;49.902;8.590;2023-09-18T03:08:44;20.20;99.90
7494;DHT22;3788;49.902;8.590;2023-09-18T03:11:11;20.20;99.90
7494;DHT22;3788;49.902;8.590;2023-09-18T03:13:43;20.20;99.90
7494;DHT22;3788;49.902;8.590;2023-09-18T03:16:10;20.30;99.90
7494;DHT22;3788;49.902;8.590;2023-09-18T03:18:37;20.30;99.90
7494;DHT22;3788;49.902;8.590;2023-09-18T03:21:03;20.30;99.90
7494;DHT22;3788;49.902;8.590;2023-09-18T03:23:31;20.30;99.90
7494;DHT22;3788;49.902;8.590;2023-09-18T03:25:58;20.40;99.90
7494;DHT22;3788;49.902;8.590;2023-09-18T03:28:25;20.40;99.90
7494;DHT22;3788;49.902;8.590;2023-09-18T03:30:52;20.50;99.90
7494;DHT22;3788;49.902;8.590;2023-09-18T03:33:19;20.50;99.90
7494;DHT22;3788;49.902;8.590;2023-09-18T03:35:47;20.50;99.90
7494;DHT22;3788;49.902;8.590;2023-09-18T03:38:14;20.60;99.90
7494;DHT22;3788;49.902;8.590;2023-09-18T03:40:42;20.50;99.90
7494;DHT22;3788;49.902;8.590;2023-09-18T03:43:10;20.50;99.90
7494;DHT22;3788;49.902;8.590;2023-09-18T03:45:37;20.50;99.90
7494;DHT22;3788;49.902;8.590;2023-09-18T03:48:04;20.50;99.90
7494;DHT22;3788;49.902;8.590;2023-09-18T03:50:31;20.50;99.90
7494;DHT22;3788;49.902;8.590;2023-09-18T03:52:58;20.50;99.90
7494;DHT22;3788;49.902;8.590;2023-09-18T03:55:24;20.50;99.90
7494;DHT22;3788;49.902;8.590;2023-09-18T03:57:53;20.50;99.90
7494;DHT22;3788;49.902;8.590;2023-09-18T04:00:21;20.50;99.90
7494;DHT22;3788;49.902;8.590;2023-09-18T04:02:48;20.50;99.90
7494;DHT22;3788;49.902;8.590;2023-09-18T04:05:15;20.50;99.90
7494;DHT22;3788;49.902;8.590;2023-09-18T04:07:41;20.60;99.90
7494;DHT22;3788;49.902;8.590;2023-09-18T04:10:11;20.60;99.90
7494;DHT22;3788;49.902;8.590;2023-09-18T04:12:43;20.60;99.90
7494;DHT22;3788;49.902;8.590;2023-09-18T04:15:14;20.50;99.90
7494;DHT22;3788;49.902;8.590;2023-09-18T04:17:40;20.50;99.90
7494;DHT22;3788;49.902;8.590;2023-09-18T04:20:08;20.50;99.90
7494;DHT22;3788;49.902;8.590;2023-09-18T04:22:35;20.50;99.90
7494;DHT22;3788;49.902;8.590;2023-09-18T04:25:01;20.50;99.90
7494;DHT22;3788;49.902;8.590;2023-09-18T04:27:30;20.50;99.90
7494;DHT22;3788;49.902;8.590;2023-09-18T04:29:57;20.50;99.90
7494;DHT22;3788;49.902;8.590;2023-09-18T04:32:27;20.50;99.90
7494;DHT22;3788;49.902;8.590;2023-09-18T04:34:54;20.50;99.90
7494;DHT22;3788;49.902;8.590;2023-09-18T04:37:21;20.50;99.90
7494;DHT22;3788;49.902;8.590;2023-09-18T04:39:48;20.60;99.90
7494;DHT22;3788;49.902;8.590;2023-09-18T04:42:14;20.60;99.90
7494;DHT22;3788;49.902;8.590;2023-09-18T04:44:41;20.50;99.90
7494;DHT22;3788;49.902;8.590;2023-09-18T04:47:08;20.50;99.90
7494;DHT22;3788;49.902;8.590;2023-09-18T04:49:36;20.50;99.90
7494;DHT22;3788;49.902;8.590;2023-09-18T04:52:03;20.60;99.90
7494;DHT22;3788;49.902;8.590;2023-09-18T04:54:30;20.60;99.90
7494;DHT22;3788;49.902;8.590;2023-09-18T04:56:57;20.60;99.90
7494;DHT22;3788;49.902;8.590;2023-09-18T04:59:24;20.60;99.90
7494;DHT22;3788;49.902;8.590;2023-09-18T05:01:50;20.70;99.90
7494;DHT22;3788;49.902;8.590;2023-09-18T05:04:17;20.70;99.90
7494;DHT22;3788;49.902;8.590;2023-09-18T05:06:45;20.70;99.90
7494;DHT22;3788;49.902;8.590;2023-09-18T05:09:12;20.70;99.90
7494;DHT22;3788;49.902;8.590;2023-09-18T05:11:40;20.70;99.90
7494;DHT22;3788;49.902;8.590;2023-09-18T05:14:07;20.70;99.90
7494;DHT22;3788;49.902;8.590;2023-09-18T05:16:34;20.70;99.90
7494;DHT22;3788;49.902;8.590;2023-09-18T05:19:00;20.70;99.90
7494;DHT22;3788;49.902;8.590;2023-09-18T05:21:27;20.60;99.90
7494;DHT22;3788;49.902;8.590;2023-09-18T05:23:56;20.60;99.90
7494;DHT22;3788;49.902;8.590;2023-09-18T05:26:23;20.60;99.90
7494;DHT22;3788;49.902;8.590;2023-09-18T05:28:52;20.60;99.90
7494;DHT22;3788;49.902;8.590;2023-09-18T05:31:20;20.60;99.90
7494;DHT22;3788;49.902;8.590;2023-09-18T05:33:47;20.50;99.90
7494;DHT22;3788;49.902;8.590;2023-09-18T05:36:14;20.50;99.90
7494;DHT22;3788;49.902;8.590;2023-09-18T05:38:41;20.50;99.90
7494;DHT22;3788;49.902;8.590;2023-09-18T05:41:10;20.50;99.90
7494;DHT22;3788;49.902;8.590;2023-09-18T05:43:36;20.50;99.90
7494;DHT22;3788;49.902;8.590;2023-09-18T05:46:03;20.50;99.90
7494;DHT22;3788;49.902;8.590;2023-09-18T05:48:30;20.50;99.90
7494;DHT22;3788;49.902;8.590;2023-09-18T05:50:56;20.40;99.90
7494;DHT22;3788;49.902;8.590;2023-09-18T05:53:23;20.40;99.90
7494;DHT22;3788;49.902;8.590;2023-09-18T05:55:51;20.40;99.90
7494;DHT22;3788;49.902;8.590;2023-09-18T05:58:35;20.40;99.90
7494;DHT22;3788;49.902;8.590;2023-09-18T06:01:02;20.40;99.90
7494;DHT22;3788;49.902;8.590;2023-09-18T06:03:31;20.30;99.90
7494;DHT22;3788;49.902;8.590;2023-09-18T06:06:23;20.30;99.90
7494;DHT22;3788;49.902;8.590;2023-09-18T06:08:51;20.30;99.90
7494;DHT22;3788;49.902;8.590;2023-09-18T06:11:20;20.30;99.90
7494;DHT22;3788;49.902;8.590;2023-09-18T06:13:48;20.30;99.90
7494;DHT22;3788;49.902;8.590;2023-09-18T06:16:15;20.30;99.90
7494;DHT22;3788;49.902;8.590;2023-09-18T06:18:42;20.30;99.90
7494;DHT22;3788;49.902;8.590;2023-09-18T06:21:10;20.30;99.90
7494;DHT22;3788;49.902;8.590;2023-09-18T06:23:36;20.30;99.90
7494;DHT22;3788;49.902;8.590;2023-09-18T06:26:03;20.30;99.90
7494;DHT22;3788;49.902;8.590;2023-09-18T06:28:30;20.30;99.90
7494;DHT22;3788;49.902;8.590;2023-09-18T06:30:58;20.30;99.90
7494;DHT22;3788;49.902;8.590;2023-09-18T06:33:25;20.30;99.90
7494;DHT22;3788;49.902;8.590;2023-09-18T06:35:51;20.30;99.90
7494;DHT22;3788;49.902;8.590;2023-09-18T06:38:18;20.30;99.90
7494;DHT22;3788;49.902;8.590;2023-09-18T06:40:46;20.30;99.90
7494;DHT22;3788;49.902;8.590;2023-09-18T06:43:12;20.40;99.90
7494;DHT22;3788;49.902;8.590;2023-09-18T06:45:39;20.40;99.90
7494;DHT22;3788;49.902;8.590;2023-09-18T06:48:07;20.40;99.90
7494;DHT22;3788;49.902;8.590;2023-09-18T06:50:34;20.40;99.90
7494;DHT22;3788;49.902;8.590;2023-09-18T06:53:02;20.50;99.90
7494;DHT22;3788;49.902;8.590;2023-09-18T06:55:28;20.60;99.90
7494;DHT22;3788;49.902;8.590;2023-09-18T06:57:55;20.60;99.90
7494;DHT22;3788;49.902;8.590;2023-09-18T07:00:22;20.60;99.90
7494;DHT22;3788;49.902;8.590;2023-09-18T07:02:49;20.60;99.90
7494;DHT22;3788;49.902;8.590;2023-09-18T07:05:17;20.60;99.90
7494;DHT22;3788;49.902;8.590;2023-09-18T07:07:43;20.60;99.90
7494;DHT22;3788;49.902;8.590;2023-09-18T07:10:10;20.60;99.90
7494;DHT22;3788;49.902;8.590;2023-09-18T07:12:37;20.60;99.90
7494;DHT22;3788;49.902;8.590;2023-09-18T07:15:06;20.60;99.90
7494;DHT22;3788;49.902;8.590;2023-09-18T07:17:32;20.60;99.90
7494;DHT22;3788;49.902;8.590;2023-09-18T07:20:00;20.60;99.90
7494;DHT22;3788;49.902;8.590;2023-09-18T07:22:34;20.60;99.90
7494;DHT22;3788;49.902;8.590;2023-09-18T07:25:01;20.60;99.90
7494;DHT22;3788;49.902;8.590;2023-09-18T07:27:27;20.60;99.90
7494;DHT22;3788;49.902;8.590;2023-09-18T07:29:55;20.60;99.90
7494;DHT22;3788;49.902;8.590;2023-09-18T07:32:23;20.60;99.90
7494;DHT22;3788;49.902;8.590;2023-09-18T07:34:52;20.60;99.90
7494;DHT22;3788;49.902;8.590;2023-09-18T07:37:18;20.70;99.90
7494;DHT22;3788;49.902;8.590;2023-09-18T07:39:48;20.70;99.90
7494;DHT22;3788;49.902;8.590;2023-09-18T07:42:14;20.70;99.90
7494;DHT22;3788;49.902;8.590;2023-09-18T07:44:42;20.80;99.90
7494;DHT22;3788;49.902;8.590;2023-09-18T07:47:09;20.80;99.90
7494;DHT22;3788;49.902;8.590;2023-09-18T07:49:35;20.80;99.90
7494;DHT22;3788;49.902;8.590;2023-09-18T07:52:02;20.90;99.90
7494;DHT22;3788;49.902;8.590;2023-09-18T07:54:29;20.90;99.90
7494;DHT22;3788;49.902;8.590;2023-09-18T07:56:57;21.00;99.90
7494;DHT22;3788;49.902;8.590;2023-09-18T07:59:24;21.20;99.90
7494;DHT22;3788;49.902;8.590;2023-09-18T08:01:51;21.30;99.90
7494;DHT22;3788;49.902;8.590;2023-09-18T08:04:18;21.40;99.90
7494;DHT22;3788;49.902;8.590;2023-09-18T08:06:45;21.50;99.90
7494;DHT22;3788;49.902;8.590;2023-09-18T08:09:11;21.50;99.90
7494;DHT22;3788;49.902;8.590;2023-09-18T08:11:41;21.40;99.90
7494;DHT22;3788;49.902;8.590;2023-09-18T08:14:09;21.50;99.90
7494;DHT22;3788;49.902;8.590;2023-09-18T08:16:38;21.50;99.90
7494;DHT22;3788;49.902;8.590;2023-09-18T08:19:04;21.50;99.90
7494;DHT22;3788;49.902;8.590;2023-09-18T08:21:32;21.50;99.90
7494;DHT22;3788;49.902;8.590;2023-09-18T08:23:58;21.50;99.90
7494;DHT22;3788;49.902;8.590;2023-09-18T08:26:25;21.60;99.90
7494;DHT22;3788;49.902;8.590;2023-09-18T08:28:53;21.70;99.90
7494;DHT22;3788;49.902;8.590;2023-09-18T08:31:21;21.70;99.90
7494;DHT22;3788;49.902;8.590;2023-09-18T08:33:48;21.70;99.90
7494;DHT22;3788;49.902;8.590;2023-09-18T08:36:16;21.70;99.90
7494;DHT22;3788;49.902;8.590;2023-09-18T08:38:42;21.70;99.90
7494;DHT22;3788;49.902;8.590;2023-09-18T08:41:12;21.70;99.90
7494;DHT22;3788;49.902;8.590;2023-09-18T08:43:42;21.80;99.90
7494;DHT22;3788;49.902;8.590;2023-09-18T08:46:10;21.80;99.90
7494;DHT22;3788;49.902;8.590;2023-09-18T08:48:39;21.90;99.90
7494;DHT22;3788;49.902;8.590;2023-09-18T08:51:06;21.90;99.90
7494;DHT22;3788;49.902;8.590;2023-09-18T08:53:35;22.00;99.90
7494;DHT22;3788;49.902;8.590;2023-09-18T08:56:03;22.00;99.90
7494;DHT22;3788;49.902;8.590;2023-09-18T08:58:32;22.10;99.90
7494;DHT22;3788;49.902;8.590;2023-09-18T09:00:59;22.10;99.90
7494;DHT22;3788;49.902;8.590;2023-09-18T09:03:28;22.10;99.90
7494;DHT22;3788;49.902;8.590;2023-09-18T09:05:57;22.00;99.90
7494;DHT22;3788;49.902;8.590;2023-09-18T09:08:27;22.00;99.90
7494;DHT22;3788;49.902;8.590;2023-09-18T09:10:54;22.00;99.90
7494;DHT22;3788;49.902;8.590;2023-09-18T09:13:23;22.10;99.90
7494;DHT22;3788;49.902;8.590;2023-09-18T09:15:52;22.20;99.90
7494;DHT22;3788;49.902;8.590;2023-09-18T09:18:21;22.20;99.90
7494;DHT22;3788;49.902;8.590;2023-09-18T09:20:55;22.20;99.90
7494;DHT22;3788;49.902;8.590;2023-09-18T09:23:25;22.20;99.90
7494;DHT22;3788;49.902;8.590;2023-09-18T09:25:52;22.20;99.90
7494;DHT22;3788;49.902;8.590;2023-09-18T09:28:29;22.20;99.90
7494;DHT22;3788;49.902;8.590;2023-09-18T09:31:00;22.20;99.90
7494;DHT22;3788;49.902;8.590;2023-09-18T09:33:28;22.10;99.90
7494;DHT22;3788;49.902;8.590;2023-09-18T09:35:55;22.20;99.90
7494;DHT22;3788;49.902;8.590;2023-09-18T09:38:28;22.20;99.90
7494;DHT22;3788;49.902;8.590;2023-09-18T09:40:57;22.20;99.90
7494;DHT22;3788;49.902;8.590;2023-09-18T09:43:25;22.20;99.90
7494;DHT22;3788;49.902;8.590;2023-09-18T09:45:56;22.10;99.90
7494;DHT22;3788;49.902;8.590;2023-09-18T09:48:24;22.10;99.90
7494;DHT22;3788;49.902;8.590;2023-09-18T09:50:51;22.10;99.90
7494;DHT22;3788;49.902;8.590;2023-09-18T09:53:41;22.10;99.90
7494;DHT22;3788;49.902;8.590;2023-09-18T09:56:09;22.20;99.90
7494;DHT22;3788;49.902;8.590;2023-09-18T09:58:36;22.20;99.90
7494;DHT22;3788;49.902;8.590;2023-09-18T10:01:03;22.20;99.90
7494;DHT22;3788;49.902;8.590;2023-09-18T10:03:35;22.30;99.90
7494;DHT22;3788;49.902;8.590;2023-09-18T10:06:04;22.30;99.90
7494;DHT22;3788;49.902;8.590;2023-09-18T10:08:33;22.30;99.90
7494;DHT22;3788;49.902;8.590;2023-09-18T10:11:06;22.30;99.90
7494;DHT22;3788;49.902;8.590;2023-09-18T10:13:40;22.40;99.90
7494;DHT22;3788;49.902;8.590;2023-09-18T10:16:09;22.40;99.90
7494;DHT22;3788;49.902;8.590;2023-09-18T10:18:42;22.30;99.90
7494;DHT22;3788;49.902;8.590;2023-09-18T10:21:22;22.30;99.90
7494;DHT22;3788;49.902;8.590;2023-09-18T10:24:02;22.30;99.90
7494;DHT22;3788;49.902;8.590;2023-09-18T10:26:32;22.30;99.90
7494;DHT22;3788;49.902;8.590;2023-09-18T10:29:04;22.30;99.90
7494;DHT22;3788;49.902;8.590;2023-09-18T10:31:37;22.30;99.90
7494;DHT22;3788;49.902;8.590;2023-09-18T10:34:06;22.40;99.90
7494;DHT22;3788;49.902;8.590;2023-09-18T10:36:34;22.40;99.90
7494;DHT22;3788;49.902;8.590;2023-09-18T10:39:03;22.50;99.90
7494;DHT22;3788;49.902;8.590;2023-09-18T10:41:33;22.70;99.90
7494;DHT22;3788;49.902;8.590;2023-09-18T10:44:01;22.80;99.90
7494;DHT22;3788;49.902;8.590;2023-09-18T10:46:30;22.80;99.90
7494;DHT22;3788;49.902;8.590;2023-09-18T10:48:58;22.90;99.90
7494;DHT22;3788;49.902;8.590;2023-09-18T10:51:26;22.90;99.90
7494;DHT22;3788;49.902;8.590;2023-09-18T10:53:53;22.90;99.90
7494;DHT22;3788;49.902;8.590;2023-09-18T10:56:24;22.90;99.90
7494;DHT22;3788;49.902;8.590;2023-09-18T10:58:57;22.90;99.90
7494;DHT22;3788;49.902;8.590;2023-09-18T11:01:24;22.90;99.90
7494;DHT22;3788;49.902;8.590;2023-09-18T11:03:52;22.90;99.90
7494;DHT22;3788;49.902;8.590;2023-09-18T11:06:19;22.90;99.90
7494;DHT22;3788;49.902;8.590;2023-09-18T11:09:02;22.90;99.90
7494;DHT22;3788;49.902;8.590;2023-09-18T11:11:31;23.00;99.90
7494;DHT22;3788;49.902;8.590;2023-09-18T11:14:00;23.10;99.90
7494;DHT22;3788;49.902;8.590;2023-09-18T11:16:36;23.20;99.90
7494;DHT22;3788;49.902;8.590;2023-09-18T11:19:16;23.30;99.90
7494;DHT22;3788;49.902;8.590;2023-09-18T11:21:45;23.40;99.50
7494;DHT22;3788;49.902;8.590;2023-09-18T11:24:16;23.40;99.40
7494;DHT22;3788;49.902;8.590;2023-09-18T11:26:45;23.50;99.50
7494;DHT22;3788;49.902;8.590;2023-09-18T11:29:14;23.60;99.20
7494;DHT22;3788;49.902;8.590;2023-09-18T11:31:46;23.60;99.00
7494;DHT22;3788;49.902;8.590;2023-09-18T11:34:15;23.70;99.00
7494;DHT22;3788;49.902;8.590;2023-09-18T11:36:42;23.70;99.00
7494;DHT22;3788;49.902;8.590;2023-09-18T11:39:10;23.80;98.90
7494;DHT22;3788;49.902;8.590;2023-09-18T11:41:38;23.90;98.80
7494;DHT22;3788;49.902;8.590;2023-09-18T11:44:34;23.90;98.60
7494;DHT22;3788;49.902;8.590;2023-09-18T11:47:07;23.90;98.40
7494;DHT22;3788;49.902;8.590;2023-09-18T11:49:38;23.90;98.40
7494;DHT22;3788;49.902;8.590;2023-09-18T11:52:07;23.90;98.50
7494;DHT22;3788;49.902;8.590;2023-09-18T11:54:35;23.90;98.40
7494;DHT22;3788;49.902;8.590;2023-09-18T11:57:05;23.90;98.50
7494;DHT22;3788;49.902;8.590;2023-09-18T11:59:39;23.90;98.40
7494;DHT22;3788;49.902;8.590;2023-09-18T12:02:06;24.00;98.60
7494;DHT22;3788;49.902;8.590;2023-09-18T12:04:34;24.00;98.60
7494;DHT22;3788;49.902;8.590;2023-09-18T12:07:01;24.20;98.60
7494;DHT22;3788;49.902;8.590;2023-09-18T12:09:30;24.30;98.00
7494;DHT22;3788;49.902;8.590;2023-09-18T12:11:57;24.40;97.70
7494;DHT22;3788;49.902;8.590;2023-09-18T12:14:30;24.50;97.70
7494;DHT22;3788;49.902;8.590;2023-09-18T12:16:59;24.60;97.60
7494;DHT22;3788;49.902;8.590;2023-09-18T12:19:26;24.60;97.50
7494;DHT22;3788;49.902;8.590;2023-09-18T12:21:52;24.60;97.20
7494;DHT22;3788;49.902;8.590;2023-09-18T12:24:21;24.60;97.10
7494;DHT22;3788;49.902;8.590;2023-09-18T12:26:48;24.50;97.00
7494;DHT22;3788;49.902;8.590;2023-09-18T12:29:15;24.40;97.20
7494;DHT22;3788;49.902;8.590;2023-09-18T12:31:42;24.30;97.40
7494;DHT22;3788;49.902;8.590;2023-09-18T12:34:15;24.30;97.60
7494;DHT22;3788;49.902;8.590;2023-09-18T12:36:43;24.40;97.50
7494;DHT22;3788;49.902;8.590;2023-09-18T12:39:10;24.40;97.40
7494;DHT22;3788;49.902;8.590;2023-09-18T12:41:37;24.40;97.40
7494;DHT22;3788;49.902;8.590;2023-09-18T12:44:05;24.60;97.30
7494;DHT22;3788;49.902;8.590;2023-09-18T12:46:34;24.70;97.20
7494;DHT22;3788;49.902;8.590;2023-09-18T12:49:19;24.80;96.90
7494;DHT22;3788;49.902;8.590;2023-09-18T12:51:55;24.80;96.60
7494;DHT22;3788;49.902;8.590;2023-09-18T12:54:35;24.80;96.30
7494;DHT22;3788;49.902;8.590;2023-09-18T12:57:04;24.80;96.50
7494;DHT22;3788;49.902;8.590;2023-09-18T12:59:31;24.80;96.30
7494;DHT22;3788;49.902;8.590;2023-09-18T13:01:58;24.80;96.10
7494;DHT22;3788;49.902;8.590;2023-09-18T13:04:26;24.80;96.30
7494;DHT22;3788;49.902;8.590;2023-09-18T13:07:04;24.80;96.00
7494;DHT22;3788;49.902;8.590;2023-09-18T13:09:31;24.70;95.90
7494;DHT22;3788;49.902;8.590;2023-09-18T13:11:58;24.70;96.20
7494;DHT22;3788;49.902;8.590;2023-09-18T13:14:24;24.60;96.20
7494;DHT22;3788;49.902;8.590;2023-09-18T13:16:52;24.60;96.40
7494;DHT22;3788;49.902;8.590;2023-09-18T13:19:19;24.70;96.50
7494;DHT22;3788;49.902;8.590;2023-09-18T13:21:49;24.80;96.60
7494;DHT22;3788;49.902;8.590;2023-09-18T13:24:25;24.90;96.50
7494;DHT22;3788;49.902;8.590;2023-09-18T13:26:52;25.00;96.10
7494;DHT22;3788;49.902;8.590;2023-09-18T13:29:20;25.10;95.90
7494;DHT22;3788;49.902;8.590;2023-09-18T13:31:46;25.10;95.90
7494;DHT22;3788;49.902;8.590;2023-09-18T13:34:13;25.10;95.80
7494;DHT22;3788;49.902;8.590;2023-09-18T13:36:43;25.00;95.50
7494;DHT22;3788;49.902;8.590;2023-09-18T13:39:11;24.90;95.70
7494;DHT22;3788;49.902;8.590;2023-09-18T13:41:39;24.70;95.70
7494;DHT22;3788;49.902;8.590;2023-09-18T13:44:06;24.60;95.80
7494;DHT22;3788;49.902;8.590;2023-09-18T13:46:33;24.50;95.80
7494;DHT22;3788;49.902;8.590;2023-09-18T13:49:01;24.40;95.80
7494;DHT22;3788;49.902;8.590;2023-09-18T13:51:29;24.30;95.90
7494;DHT22;3788;49.902;8.590;2023-09-18T13:53:56;24.30;96.00
7494;DHT22;3788;49.902;8.590;2023-09-18T13:56:24;24.20;96.10
7494;DHT22;3788;49.902;8.590;2023-09-18T13:58:53;24.20;96.20
7494;DHT22;3788;49.902;8.590;2023-09-18T14:01:21;24.20;96.50
7494;DHT22;3788;49.902;8.590;2023-09-18T14:03:48;24.20;96.20
7494;DHT22;3788;49.902;8.590;2023-09-18T14:06:16;24.20;96.20
7494;DHT22;3788;49.902;8.590;2023-09-18T14:08:42;24.20;96.50
7494;DHT22;3788;49.902;8.590;2023-09-18T14:11:09;24.20;96.60
7494;DHT22;3788;49.902;8.590;2023-09-18T14:13:38;24.20;96.50
7494;DHT22;3788;49.902;8.590;2023-09-18T14:16:04;24.20;96.60
7494;DHT22;3788;49.902;8.590;2023-09-18T14:18:31;24.20;96.70
7494;DHT22;3788;49.902;8.590;2023-09-18T14:20:58;24.20;96.80
7494;DHT22;3788;49.902;8.590;2023-09-18T14:23:25;24.20;96.60
7494;DHT22;3788;49.902;8.590;2023-09-18T14:25:52;24.20;96.60
7494;DHT22;3788;49.902;8.590;2023-09-18T14:28:19;24.30;96.70
7494;DHT22;3788;49.902;8.590;2023-09-18T14:30:47;24.30;96.80
7494;DHT22;3788;49.902;8.590;2023-09-18T14:33:14;24.40;96.40
7494;DHT22;3788;49.902;8.590;2023-09-18T14:35:41;24.40;96.20
7494;DHT22;3788;49.902;8.590;2023-09-18T14:38:07;24.40;95.70
7494;DHT22;3788;49.902;8.590;2023-09-18T14:40:35;24.40;95.80
7494;DHT22;3788;49.902;8.590;2023-09-18T14:43:01;24.50;95.70
7494;DHT22;3788;49.902;8.590;2023-09-18T14:45:30;24.40;95.70
7494;DHT22;3788;49.902;8.590;2023-09-18T14:47:58;24.50;95.70
7494;DHT22;3788;49.902;8.590;2023-09-18T14:50:25;24.40;95.40
7494;DHT22;3788;49.902;8.590;2023-09-18T14:52:51;24.50;95.60
7494;DHT22;3788;49.902;8.590;2023-09-18T14:55:18;24.50;95.20
7494;DHT22;3788;49.902;8.590;2023-09-18T14:57:45;24.40;95.30
7494;DHT22;3788;49.902;8.590;2023-09-18T15:00:12;24.40;95.30
7494;DHT22;3788;49.902;8.590;2023-09-18T15:02:39;24.30;95.50
7494;DHT22;3788;49.902;8.590;2023-09-18T15:05:07;24.30;95.40
7494;DHT22;3788;49.902;8.590;2023-09-18T15:07:37;24.30;95.40
7494;DHT22;3788;49.902;8.590;2023-09-18T15:10:05;24.30;95.50
7494;DHT22;3788;49.902;8.590;2023-09-18T15:12:33;24.40;95.60
7494;DHT22;3788;49.902;8.590;2023-09-18T15:15:00;24.50;95.70
7494;DHT22;3788;49.902;8.590;2023-09-18T15:17:27;24.50;95.40
7494;DHT22;3788;49.902;8.590;2023-09-18T15:19:54;24.50;95.30
7494;DHT22;3788;49.902;8.590;2023-09-18T15:22:23;24.40;95.30
7494;DHT22;3788;49.902;8.590;2023-09-18T15:24:50;24.40;95.40
7494;DHT22;3788;49.902;8.590;2023-09-18T15:27:17;24.40;95.40
7494;DHT22;3788;49.902;8.590;2023-09-18T15:29:44;24.40;95.60
7494;DHT22;3788;49.902;8.590;2023-09-18T15:32:10;24.30;95.60
7494;DHT22;3788;49.902;8.590;2023-09-18T15:34:37;24.30;95.40
7494;DHT22;3788;49.902;8.590;2023-09-18T15:37:24;24.20;95.70
7494;DHT22;3788;49.902;8.590;2023-09-18T15:39:50;24.10;95.30
7494;DHT22;3788;49.902;8.590;2023-09-18T15:42:18;24.10;95.30
7494;DHT22;3788;49.902;8.590;2023-09-18T15:44:44;24.00;95.30
7494;DHT22;3788;49.902;8.590;2023-09-18T15:47:11;24.00;95.40
7494;DHT22;3788;49.902;8.590;2023-09-18T15:49:38;24.00;95.40
7494;DHT22;3788;49.902;8.590;2023-09-18T15:52:05;24.00;95.30
7494;DHT22;3788;49.902;8.590;2023-09-18T15:54:33;24.00;95.30
7494;DHT22;3788;49.902;8.590;2023-09-18T15:57:00;24.00;95.40
7494;DHT22;3788;49.902;8.590;2023-09-18T15:59:27;24.00;95.00
7494;DHT22;3788;49.902;8.590;2023-09-18T16:01:54;24.00;95.10
7494;DHT22;3788;49.902;8.590;2023-09-18T16:04:21;23.90;95.10
7494;DHT22;3788;49.902;8.590;2023-09-18T16:06:47;23.90;95.00
7494;DHT22;3788;49.902;8.590;2023-09-18T16:09:15;23.90;95.10